Time;durP1;ratioP1;P1;durP2;ratioP2;P2;SDS_P1;SDS_P2;PMS_P1;PMS_P2;Temp;Humidity;BMP_temperature;BMP_pressure;BME280_temperature;BME280_humidity;BME280_pressure;Samples;Min_cycle;Max_cycle;Signal;HPM_P1;HPM_P2
2021/08/28 00:01:14;;;;;;;32.20;20.67;;;;;;;23.14;100.00;100670.47;4880729;29;20029;-67
2021/08/28 00:04:00;;;;;;;26.60;21.33;;;;;;;23.17;100.00;100671.13;4881581;29;20032;-67
2021/08/28 00:06:46;;;;;;;28.05;21.95;;;;;;;23.11;100.00;100678.72;4880955;29;20028;-67
2021/08/28 00:09:32;;;;;;;31.63;22.45;;;;;;;23.33;100.00;100671.78;4880437;29;20063;-67
2021/08/28 00:12:19;;;;;;;30.73;22.02;;;;;;;23.10;100.00;100679.66;4880544;29;20025;-68
2021/08/28 00:15:08;;;;;;;30.13;23.13;;;;;;;23.19;100.00;100684.38;4880057;29;20033;-67
2021/08/28 00:17:54;;;;;;;36.47;24.92;;;;;;;22.85;100.00;100676.97;4880349;29;20415;-67
2021/08/28 00:20:40;;;;;;;32.80;23.45;;;;;;;22.87;100.00;100683.06;4880193;29;20089;-67
2021/08/28 00:23:26;;;;;;;30.35;23.77;;;;;;;23.19;100.00;100689.72;4880960;29;20029;-68
2021/08/28 00:26:12;;;;;;;38.22;25.70;;;;;;;22.80;100.00;100696.00;4880518;29;20454;-67
2021/08/28 00:28:58;;;;;;;34.03;25.30;;;;;;;22.67;100.00;100704.94;4880727;29;20037;-67
2021/08/28 00:31:44;;;;;;;35.75;24.73;;;;;;;22.76;100.00;100698.97;4880285;29;20383;-67
2021/08/28 00:34:29;;;;;;;30.90;25.08;;;;;;;22.63;100.00;100690.91;4880420;29;20035;-67
2021/08/28 00:37:15;;;;;;;34.70;25.33;;;;;;;22.80;100.00;100704.00;4880611;29;20041;-67
2021/08/28 00:40:01;;;;;;;32.05;25.67;;;;;;;22.66;100.00;100695.19;4880379;29;20028;-67
2021/08/28 00:42:51;;;;;;;34.53;25.48;;;;;;;22.64;100.00;100705.13;4880047;29;20029;-67
2021/08/28 00:45:41;;;;;;;34.67;26.55;;;;;;;22.58;100.00;100709.06;4879911;29;20447;-67
2021/08/28 00:48:27;;;;;;;37.70;26.98;;;;;;;22.90;100.00;100721.13;4869790;29;20434;-68
2021/08/28 00:51:13;;;;;;;35.88;26.17;;;;;;;23.04;100.00;100718.38;4884321;29;20039;-68
2021/08/28 00:54:00;;;;;;;30.77;24.58;;;;;;;22.73;100.00;100716.06;4871057;29;20055;-68
2021/08/28 00:56:46;;;;;;;33.53;26.58;;;;;;;22.87;100.00;100720.47;4883529;29;20040;-68
2021/08/28 00:59:31;;;;;;;32.15;24.08;;;;;;;22.55;100.00;100719.13;4884035;29;20120;-68
2021/08/28 01:02:20;;;;;;;32.40;25.02;;;;;;;22.49;100.00;100725.72;4883643;29;20071;-68
2021/08/28 01:05:14;;;;;;;30.95;24.85;;;;;;;22.34;100.00;100724.00;4883973;29;20048;-67
2021/08/28 01:08:20;;;;;;;33.05;24.88;;;;;;;22.42;100.00;100715.53;4883627;29;20059;-67
2021/08/28 01:11:32;;;;;;;31.75;24.33;;;;;;;22.22;100.00;100722.16;4884131;29;20513;-67
2021/08/28 01:14:29;;;;;;;30.15;23.63;;;;;;;22.37;100.00;100714.94;4883259;29;20483;-67
2021/08/28 01:17:15;;;;;;;30.67;23.90;;;;;;;22.54;100.00;100720.06;4883379;29;20037;-68
2021/08/28 01:20:25;;;;;;;32.22;23.88;;;;;;;22.49;100.00;100723.03;4883327;29;20037;-68
2021/08/28 01:23:12;;;;;;;29.85;23.45;;;;;;;22.16;100.00;100711.88;4883619;29;20041;-68
2021/08/28 01:26:04;;;;;;;28.85;23.20;;;;;;;22.15;100.00;100731.50;4883432;29;20382;-67
2021/08/28 01:28:58;;;;;;;31.70;23.50;;;;;;;22.22;100.00;100718.63;4883834;29;20048;-67
2021/08/28 01:31:47;;;;;;;27.80;22.13;;;;;;;22.13;100.00;100720.09;4883211;29;20111;-67
2021/08/28 01:34:34;;;;;;;30.88;23.00;;;;;;;22.46;100.00;100720.56;4883307;29;20033;-68
2021/08/28 01:37:20;;;;;;;28.25;21.67;;;;;;;22.29;100.00;100722.59;4882919;29;20345;-68
2021/08/28 01:40:07;;;;;;;26.42;21.50;;;;;;;21.82;100.00;100730.16;4883515;29;20108;-68
2021/08/28 01:42:54;;;;;;;27.70;20.75;;;;;;;22.21;100.00;100731.13;4883124;29;20370;-68
2021/08/28 01:45:41;;;;;;;27.10;20.33;;;;;;;22.01;100.00;100731.53;4882711;29;20179;-67
2021/08/28 01:48:28;;;;;;;27.05;19.88;;;;;;;21.61;100.00;100712.78;4883152;29;20043;-67
2021/08/28 01:51:14;;;;;;;26.90;20.15;;;;;;;21.81;100.00;100721.28;4882655;29;20124;-67
2021/08/28 01:54:01;;;;;;;23.15;19.02;;;;;;;22.04;100.00;100720.69;4883374;29;20412;-67
2021/08/28 01:56:46;;;;;;;23.52;19.15;;;;;;;22.00;100.00;100724.50;4868252;29;20028;-68
2021/08/28 01:59:32;;;;;;;29.38;20.98;;;;;;;21.95;100.00;100731.09;4883461;29;20042;-67
2021/08/28 02:02:18;;;;;;;22.67;18.50;;;;;;;21.74;100.00;100725.28;4882663;29;20366;-67
2021/08/28 02:05:04;;;;;;;25.10;18.88;;;;;;;22.10;100.00;100733.63;4883538;29;20116;-67
2021/08/28 02:07:58;;;;;;;23.42;17.88;;;;;;;21.76;100.00;100734.06;4882466;29;20033;-67
2021/08/28 02:10:51;;;;;;;23.48;17.83;;;;;;;21.86;100.00;100729.00;4883311;29;20368;-67
2021/08/28 02:13:50;;;;;;;23.15;17.92;;;;;;;22.03;100.00;100721.63;4882530;29;20044;-67
2021/08/28 02:16:41;;;;;;;21.55;17.88;;;;;;;21.81;100.00;100734.63;4882308;29;20040;-67
2021/08/28 02:19:30;;;;;;;22.50;17.42;;;;;;;21.92;100.00;100740.16;4882588;29;20021;-68
2021/08/28 02:22:27;;;;;;;23.63;17.30;;;;;;;22.04;100.00;100749.16;4883030;29;20048;-67
2021/08/28 02:25:31;;;;;;;19.15;16.58;;;;;;;22.19;100.00;100750.84;4869283;29;20040;-67
2021/08/28 02:28:23;;;;;;;25.08;17.38;;;;;;;21.75;100.00;100753.69;4882293;29;20037;-67
2021/08/28 02:31:11;;;;;;;21.95;16.52;;;;;;;21.93;100.00;100757.84;4882351;29;20036;-67
2021/08/28 02:33:57;;;;;;;19.40;15.57;;;;;;;21.69;100.00;100764.69;4882407;29;20348;-67
2021/08/28 02:36:45;;;;;;;20.63;15.95;;;;;;;21.75;100.00;100763.50;4882239;29;20466;-67
2021/08/28 02:39:34;;;;;;;20.08;14.98;;;;;;;21.59;100.00;100757.38;4881970;29;20032;-67
2021/08/28 02:42:20;;;;;;;17.45;14.32;;;;;;;21.66;100.00;100756.88;4882296;29;20039;-67
2021/08/28 02:45:08;;;;;;;35.67;15.65;;;;;;;21.71;100.00;100760.19;4881814;29;20027;-67
2021/08/28 02:47:54;;;;;;;17.83;14.18;;;;;;;21.73;100.00;100770.72;4882279;29;20045;-67
2021/08/28 02:50:41;;;;;;;15.88;14.02;;;;;;;22.14;100.00;100771.66;4881889;29;20541;-67
2021/08/28 02:53:29;;;;;;;17.67;14.60;;;;;;;21.84;100.00;100763.78;4881861;29;20378;-67
2021/08/28 02:56:19;;;;;;;16.98;14.40;;;;;;;21.52;100.00;100767.56;4881675;29;20029;-68
2021/08/28 02:59:06;;;;;;;17.27;14.18;;;;;;;21.66;100.00;100774.72;4882003;29;20029;-68
2021/08/28 03:01:52;;;;;;;16.38;13.60;;;;;;;21.71;100.00;100777.97;4881694;29;20093;-68
2021/08/28 03:04:39;;;;;;;16.77;13.40;;;;;;;21.41;100.00;100788.69;4882023;29;20057;-68
2021/08/28 03:07:25;;;;;;;14.88;12.80;;;;;;;21.35;100.00;100785.53;4868330;29;20047;-68
2021/08/28 03:10:13;;;;;;;17.23;12.68;;;;;;;21.33;100.00;100796.28;4880938;29;20351;-68
2021/08/28 03:12:59;;;;;;;16.00;12.75;;;;;;;21.36;100.00;100796.09;4881667;29;20049;-67
2021/08/28 03:15:46;;;;;;;15.00;12.70;;;;;;;21.28;100.00;100801.03;4881239;29;20056;-68
2021/08/28 03:18:37;;;;;;;15.38;12.98;;;;;;;21.01;100.00;100804.50;4881924;29;20029;-67
2021/08/28 03:21:25;;;;;;;14.88;12.10;;;;;;;21.33;100.00;100806.06;4868009;29;20455;-68
2021/08/28 03:24:11;;;;;;;14.50;12.43;;;;;;;21.64;100.00;100801.47;4881296;29;20470;-67
2021/08/28 03:26:58;;;;;;;18.10;12.27;;;;;;;21.09;100.00;100813.72;4881265;29;20025;-68
2021/08/28 03:29:46;;;;;;;16.75;12.00;;;;;;;21.50;100.00;100820.09;4881085;29;20041;-67
2021/08/28 03:32:32;;;;;;;15.90;12.25;;;;;;;21.45;100.00;100816.00;4880971;29;20102;-68
2021/08/28 03:35:18;;;;;;;15.88;12.18;;;;;;;21.26;100.00;100808.25;4881640;29;20458;-67
2021/08/28 03:38:04;;;;;;;15.15;12.20;;;;;;;21.23;100.00;100808.47;4880846;29;20111;-67
2021/08/28 03:40:50;;;;;;;15.65;12.70;;;;;;;21.22;100.00;100812.06;4881295;29;20340;-67
2021/08/28 03:43:36;;;;;;;17.33;13.02;;;;;;;21.39;100.00;100811.91;4881076;29;20100;-67
2021/08/28 03:46:22;;;;;;;17.90;12.95;;;;;;;21.49;100.00;100823.72;4880649;29;20148;-67
2021/08/28 03:49:08;;;;;;;17.98;13.23;;;;;;;21.35;100.00;100821.06;4880989;29;20036;-67
2021/08/28 03:51:54;;;;;;;17.70;13.52;;;;;;;21.54;100.00;100831.47;4881074;29;20423;-67
2021/08/28 03:54:39;;;;;;;15.07;12.15;;;;;;;21.48;100.00;100831.81;4880855;29;20031;-67
2021/08/28 03:57:25;;;;;;;16.75;14.15;;;;;;;21.65;100.00;100836.97;4880458;29;20469;-67
2021/08/28 04:00:11;;;;;;;16.77;12.80;;;;;;;21.40;100.00;100834.97;4880621;29;20033;-68
2021/08/28 04:02:57;;;;;;;15.68;13.30;;;;;;;21.35;100.00;100834.38;4867203;29;20029;-67
2021/08/28 04:05:43;;;;;;;15.60;12.57;;;;;;;21.21;100.00;100841.44;4880764;29;20169;-68
2021/08/28 04:08:28;;;;;;;16.15;12.60;;;;;;;21.61;100.00;100839.00;4880335;29;20029;-67
2021/08/28 04:11:15;;;;;;;14.27;12.55;;;;;;;21.47;100.00;100841.66;4880299;29;20097;-67
2021/08/28 04:14:01;;;;;;;17.80;13.23;;;;;;;21.31;100.00;100839.97;4880426;29;20104;-66
2021/08/28 04:16:46;;;;;;;16.40;13.25;;;;;;;21.12;100.00;100856.19;4880180;29;20129;-68
2021/08/28 04:19:32;;;;;;;17.60;13.35;;;;;;;21.13;100.00;100855.25;4880488;29;20032;-67
2021/08/28 04:22:18;;;;;;;17.30;12.63;;;;;;;21.33;100.00;100857.59;4880503;29;20060;-67
2021/08/28 04:25:04;;;;;;;16.95;12.93;;;;;;;21.33;100.00;100862.03;4880832;29;20391;-67
2021/08/28 04:27:50;;;;;;;14.70;12.75;;;;;;;21.15;100.00;100863.16;4867257;29;20093;-67
2021/08/28 04:30:35;;;;;;;20.42;13.25;;;;;;;21.24;100.00;100865.25;4880525;29;20033;-68
2021/08/28 04:33:21;;;;;;;15.43;13.20;;;;;;;21.24;100.00;100873.25;4866885;29;20370;-67
2021/08/28 04:36:07;;;;;;;16.20;13.38;;;;;;;21.22;100.00;100877.84;4880046;29;20074;-67
2021/08/28 04:38:53;;;;;;;18.95;13.60;;;;;;;21.32;100.00;100877.19;4879952;29;20069;-67
2021/08/28 04:41:39;;;;;;;19.60;13.10;;;;;;;21.31;100.00;100886.16;4879987;29;20037;-68
2021/08/28 04:44:25;;;;;;;17.60;13.27;;;;;;;21.35;100.00;100886.81;4880050;29;20462;-67
2021/08/28 04:47:11;;;;;;;17.55;13.70;;;;;;;21.38;100.00;100890.16;4879837;29;20060;-67
2021/08/28 04:49:56;;;;;;;18.52;13.48;;;;;;;21.84;100.00;100881.16;4880330;29;20523;-67
2021/08/28 04:52:42;;;;;;;18.45;14.48;;;;;;;21.75;100.00;100889.72;4879918;29;20060;-67
2021/08/28 04:55:29;;;;;;;21.05;13.98;;;;;;;21.60;100.00;100884.41;4879755;29;20033;-67
2021/08/28 04:58:15;;;;;;;20.40;14.27;;;;;;;21.83;100.00;100891.91;4879965;29;20033;-67
2021/08/28 05:01:01;;;;;;;18.05;14.27;;;;;;;21.63;100.00;100882.44;4866188;29;20044;-67
2021/08/28 05:03:46;;;;;;;18.90;14.32;;;;;;;21.60;100.00;100893.28;4880127;29;20032;-68
2021/08/28 05:06:32;;;;;;;18.35;14.43;;;;;;;21.64;100.00;100893.94;4880095;29;20033;-67
2021/08/28 05:09:18;;;;;;;18.20;13.65;;;;;;;21.66;100.00;100892.06;4879775;29;20029;-67
2021/08/28 05:12:04;;;;;;;17.17;13.25;;;;;;;21.72;100.00;100897.03;4880058;29;20470;-67
2021/08/28 05:14:50;;;;;;;18.13;13.63;;;;;;;21.82;100.00;100901.72;4880177;29;20437;-68
2021/08/28 05:17:35;;;;;;;16.90;13.07;;;;;;;22.06;100.00;100907.41;4880094;29;20055;-67
2021/08/28 05:20:21;;;;;;;15.68;13.15;;;;;;;21.97;100.00;100898.13;4879729;29;20354;-67
2021/08/28 05:23:07;;;;;;;16.80;12.80;;;;;;;21.89;100.00;100902.19;4879842;29;20044;-67
2021/08/28 05:25:54;;;;;;;14.65;12.27;;;;;;;22.07;100.00;100909.09;4879916;29;20056;-67
2021/08/28 05:28:40;;;;;;;15.02;12.18;;;;;;;21.90;100.00;100914.63;4879790;29;20025;-67
2021/08/28 05:31:25;;;;;;;14.77;12.13;;;;;;;21.63;100.00;100917.09;4879950;29;20029;-67
2021/08/28 05:34:11;;;;;;;14.07;11.70;;;;;;;22.08;100.00;100921.47;4881960;29;20025;-67
2021/08/28 05:36:57;;;;;;;14.15;11.32;;;;;;;22.00;100.00;100919.28;4883381;29;20033;-67
2021/08/28 05:39:43;;;;;;;15.25;12.05;;;;;;;21.56;100.00;100923.75;4883075;29;20032;-67
2021/08/28 05:42:29;;;;;;;15.82;11.32;;;;;;;21.63;100.00;100930.44;4883118;29;20039;-68
2021/08/28 05:45:15;;;;;;;15.85;11.52;;;;;;;21.55;100.00;100934.50;4882850;29;20029;-67
2021/08/28 05:48:00;;;;;;;13.63;11.05;;;;;;;22.11;100.00;100931.97;4883166;29;20120;-67
2021/08/28 05:50:46;;;;;;;12.57;10.30;;;;;;;22.20;100.00;100934.06;4882780;29;20045;-67
2021/08/28 05:53:32;;;;;;;14.80;10.68;;;;;;;22.14;100.00;100929.13;4869304;29;20040;-67
2021/08/28 05:56:17;;;;;;;18.05;11.43;;;;;;;22.01;100.00;100926.34;4882745;29;20026;-67
2021/08/28 05:59:03;;;;;;;18.05;10.57;;;;;;;22.15;100.00;100933.50;4882954;29;20129;-68
2021/08/28 06:01:49;;;;;;;13.73;9.82;;;;;;;22.12;100.00;100931.88;4883373;29;20047;-68
2021/08/28 06:04:35;;;;;;;14.20;10.00;;;;;;;21.96;100.00;100941.78;4882901;29;20072;-67
2021/08/28 06:07:20;;;;;;;12.23;9.23;;;;;;;21.80;100.00;100942.78;4882464;29;20522;-67
2021/08/28 06:10:07;;;;;;;11.52;9.88;;;;;;;22.28;100.00;100948.69;4884497;29;20188;-67
2021/08/28 06:12:53;;;;;;;12.68;9.15;;;;;;;21.81;100.00;100955.16;4871054;29;20029;-67
2021/08/28 06:15:39;;;;;;;13.02;9.13;;;;;;;21.84;100.00;100949.66;4882276;29;20025;-67
2021/08/28 06:18:24;;;;;;;14.80;9.45;;;;;;;22.13;100.00;100940.72;4882825;29;20028;-67
2021/08/28 06:21:10;;;;;;;18.23;8.82;;;;;;;22.35;100.00;100952.66;4882575;29;20359;-67
2021/08/28 06:23:56;;;;;;;12.82;8.40;;;;;;;22.45;100.00;100944.94;4883479;29;20100;-68
2021/08/28 06:26:42;;;;;;;11.63;8.73;;;;;;;22.18;100.00;100944.84;4883329;29;20197;-67
2021/08/28 06:29:27;;;;;;;12.48;7.88;;;;;;;22.31;100.00;100945.78;4883258;29;20068;-66
2021/08/28 06:32:13;;;;;;;13.13;8.52;;;;;;;22.06;100.00;100950.94;4882043;29;20029;-66
2021/08/28 06:34:59;;;;;;;11.45;8.20;;;;;;;22.19;100.00;100949.22;4882856;29;20355;-66
2021/08/28 06:37:47;;;;;;;11.07;8.02;;;;;;;22.47;100.00;100943.91;4882494;29;20029;-68
2021/08/28 06:40:33;;;;;;;12.80;8.07;;;;;;;22.63;100.00;100936.66;4882573;29;20025;-68
2021/08/28 06:43:19;;;;;;;11.57;8.95;;;;;;;22.78;100.00;100938.34;4882343;29;20177;-67
2021/08/28 06:46:05;;;;;;;13.50;9.95;;;;;;;22.41;100.00;100930.94;4880936;29;20053;-66
2021/08/28 06:48:51;;;;;;;12.07;9.00;;;;;;;22.94;100.00;100930.19;4882265;29;20045;-66
2021/08/28 06:51:37;;;;;;;12.57;9.13;;;;;;;23.01;100.00;100929.72;4883184;29;20044;-66
2021/08/28 06:54:23;;;;;;;16.00;10.23;;;;;;;22.84;100.00;100931.75;4881373;29;20060;-67
2021/08/28 06:57:09;;;;;;;12.93;9.48;;;;;;;22.74;100.00;100934.16;4881347;29;20043;-66
2021/08/28 06:59:54;;;;;;;13.80;9.10;;;;;;;22.64;100.00;100934.84;4882176;29;20084;-66
2021/08/28 07:02:41;;;;;;;12.48;8.82;;;;;;;22.94;100.00;100925.72;4883772;29;20037;-67
2021/08/28 07:05:27;;;;;;;11.32;9.07;;;;;;;22.82;100.00;100939.88;4883637;29;20056;-68
2021/08/28 07:08:13;;;;;;;15.27;10.23;;;;;;;22.67;100.00;100921.31;4881526;29;20033;-68
2021/08/28 07:10:59;;;;;;;17.92;9.63;;;;;;;22.83;100.00;100927.38;4882105;29;20029;-67
2021/08/28 07:13:44;;;;;;;16.70;10.05;;;;;;;22.51;100.00;100918.72;4868476;29;20096;-67
2021/08/28 07:16:30;;;;;;;14.55;9.35;;;;;;;22.74;100.00;100930.63;4881499;29;20044;-67
2021/08/28 07:19:16;;;;;;;21.10;9.57;;;;;;;22.81;100.00;100919.47;4881319;29;20366;-67
2021/08/28 07:22:02;;;;;;;16.65;8.60;;;;;;;23.10;100.00;100920.22;4881752;29;20044;-68
2021/08/28 07:24:48;;;;;;;14.82;8.50;;;;;;;23.09;100.00;100914.03;4882551;29;20094;-66
2021/08/28 07:27:34;;;;;;;12.60;8.52;;;;;;;23.11;100.00;100912.09;4869411;29;20047;-66
2021/08/28 07:30:19;;;;;;;15.30;8.82;;;;;;;23.20;100.00;100914.19;4868908;29;20057;-67
2021/08/28 07:33:06;;;;;;;11.40;8.85;;;;;;;22.69;100.00;100919.38;4881489;29;20060;-68
2021/08/28 07:35:52;;;;;;;11.77;8.43;;;;;;;22.93;100.00;100910.66;4881644;29;20122;-68
2021/08/28 07:38:38;;;;;;;12.27;8.20;;;;;;;22.58;100.00;100919.19;4883109;29;20029;-69
2021/08/28 07:41:24;;;;;;;13.55;8.65;;;;;;;22.61;100.00;100914.53;4881309;29;20033;-69
2021/08/28 07:44:10;;;;;;;10.20;8.25;;;;;;;22.75;100.00;100914.50;4881047;29;20078;-67
2021/08/28 07:46:56;;;;;;;12.27;8.80;;;;;;;23.60;100.00;100909.72;4880916;29;20407;-65
2021/08/28 07:49:42;;;;;;;12.85;8.23;;;;;;;23.43;100.00;100910.03;4882425;29;20121;-65
2021/08/28 07:52:28;;;;;;;12.18;8.82;;;;;;;23.54;100.00;100914.63;4882005;29;20033;-66
2021/08/28 07:55:14;;;;;;;12.23;9.38;;;;;;;22.97;100.00;100913.97;4880829;29;20025;-65
2021/08/28 07:58:00;;;;;;;10.73;7.90;;;;;;;22.79;100.00;100909.84;4882243;29;20036;-66
2021/08/28 08:00:46;;;;;;;12.65;8.80;;;;;;;22.97;100.00;100906.81;4881623;29;20575;-66
2021/08/28 08:03:35;;;;;;;24.65;19.63;;;;;;;23.73;100.00;100909.72;4881369;29;20116;-67
2021/08/28 08:06:22;;;;;;;13.00;9.43;;;;;;;22.87;100.00;100899.50;4880582;29;20142;-66
2021/08/28 08:09:08;;;;;;;13.02;9.80;;;;;;;23.16;100.00;100903.78;4880313;29;20029;-67
2021/08/28 08:11:53;;;;;;;15.60;10.55;;;;;;;22.89;100.00;100901.13;4880803;29;20400;-66
2021/08/28 08:14:39;;;;;;;14.20;9.88;;;;;;;23.20;100.00;100900.00;4880509;29;20033;-66
2021/08/28 08:17:25;;;;;;;13.90;11.02;;;;;;;23.28;100.00;100898.50;4881274;29;20120;-66
2021/08/28 08:20:12;;;;;;;11.80;9.27;;;;;;;23.47;100.00;100902.63;4880337;29;20033;-66
2021/08/28 08:22:58;;;;;;;12.80;10.32;;;;;;;23.21;100.00;100902.56;4880426;29;20037;-66
2021/08/28 08:25:44;;;;;;;14.27;10.68;;;;;;;23.44;100.00;100899.19;4880431;29;20105;-66
2021/08/28 08:28:29;;;;;;;16.90;11.50;;;;;;;22.99;100.00;100888.84;4880195;29;20036;-66
2021/08/28 08:31:15;;;;;;;13.68;11.02;;;;;;;23.03;100.00;100893.03;4880106;29;20162;-66
2021/08/28 08:34:01;;;;;;;18.52;11.80;;;;;;;23.39;100.00;100898.66;4880593;29;20033;-66
2021/08/28 08:36:47;;;;;;;16.13;11.20;;;;;;;23.24;100.00;100896.16;4880014;29;20119;-66
2021/08/28 08:39:34;;;;;;;14.95;10.90;;;;;;;23.44;100.00;100901.03;4879950;29;20116;-66
2021/08/28 08:42:22;;;;;;;16.30;10.95;;;;;;;23.92;100.00;100899.50;4880316;29;20033;-67
2021/08/28 08:45:09;;;;;;;17.27;11.80;;;;;;;23.14;100.00;100895.00;4879938;29;20032;-66
2021/08/28 08:47:57;;;;;;;14.30;10.50;;;;;;;24.31;100.00;100897.56;4880827;29;20116;-65
2021/08/28 08:50:47;;;;;;;14.48;10.32;;;;;;;24.23;100.00;100899.91;4879987;29;20464;-66
2021/08/28 08:53:34;;;;;;;15.15;11.43;;;;;;;24.24;100.00;100895.44;4880043;29;20075;-66
2021/08/28 08:56:20;;;;;;;19.17;14.15;;;;;;;24.32;100.00;100887.72;4879698;29;20029;-66
2021/08/28 08:59:06;;;;;;;18.58;12.18;;;;;;;23.88;100.00;100882.78;4880351;29;20032;-65
2021/08/28 09:01:51;;;;;;;20.10;13.15;;;;;;;24.10;100.00;100887.53;4880090;29;20044;-66
2021/08/28 09:04:37;;;;;;;30.77;13.25;;;;;;;24.17;100.00;100878.09;4880195;29;20415;-66
2021/08/28 09:07:23;;;;;;;19.05;11.55;;;;;;;24.65;100.00;100875.47;4866771;29;20021;-66
2021/08/28 09:10:09;;;;;;;19.63;12.02;;;;;;;24.62;100.00;100872.13;4883709;29;20056;-66
2021/08/28 09:13:19;;;;;;;20.27;12.77;;;;;;;24.83;100.00;100862.53;4884376;29;20033;-66
2021/08/28 09:16:07;;;;;;;16.77;11.73;;;;;;;24.70;100.00;100859.88;4870104;29;20033;-65
2021/08/28 09:18:53;;;;;;;18.67;13.15;;;;;;;25.01;100.00;100853.97;4883511;29;20032;-66
2021/08/28 09:21:40;;;;;;;19.27;13.80;;;;;;;25.14;100.00;100849.41;4883249;29;20455;-66
2021/08/28 09:24:25;;;;;;;21.52;13.48;;;;;;;24.98;100.00;100856.88;4883376;29;20060;-67
2021/08/28 09:27:12;;;;;;;21.80;13.63;;;;;;;25.13;100.00;100849.50;4882900;29;20025;-67
2021/08/28 09:29:58;;;;;;;20.38;13.63;;;;;;;25.49;100.00;100844.94;4883727;29;20045;-66
2021/08/28 09:32:51;;;;;;;21.15;14.77;;;;;;;25.58;100.00;100844.22;4883121;29;20037;-66
2021/08/28 09:35:48;;;;;;;16.77;13.02;;;;;;;26.15;100.00;100831.59;4883463;29;20435;-66
2021/08/28 09:38:38;;;;;;;17.15;14.27;;;;;;;26.18;100.00;100828.69;4883051;29;20036;-66
2021/08/28 09:41:29;;;;;;;22.30;15.25;;;;;;;25.63;100.00;100827.78;4883491;29;20450;-66
2021/08/28 09:44:20;;;;;;;22.55;15.65;;;;;;;25.26;100.00;100818.97;4883040;29;20033;-66
2021/08/28 09:47:17;;;;;;;23.65;16.15;;;;;;;25.98;100.00;100823.19;4882741;29;20056;-67
2021/08/28 09:50:03;;;;;;;23.70;16.50;;;;;;;26.14;100.00;100824.53;4868619;29;20506;-66
2021/08/28 09:52:49;;;;;;;23.55;16.83;;;;;;;25.22;100.00;100822.00;4882861;29;20028;-67
2021/08/28 09:55:37;;;;;;;20.25;15.15;;;;;;;26.22;100.00;100821.22;4869270;29;20380;-67
2021/08/28 09:58:25;;;;;;;19.75;15.55;;;;;;;26.04;100.00;100823.53;4882856;29;20040;-66
2021/08/28 10:01:10;;;;;;;25.20;18.48;;;;;;;25.81;100.00;100821.81;4882780;29;20066;-66
2021/08/28 10:04:00;;;;;;;31.38;23.95;;;;;;;26.41;100.00;100816.91;4869271;29;20021;-65
2021/08/28 10:06:48;;;;;;;23.02;18.90;;;;;;;26.42;100.00;100824.03;4882577;29;20036;-66
2021/08/28 10:09:34;;;;;;;22.85;17.90;;;;;;;26.21;100.00;100823.06;4882581;29;20036;-65
2021/08/28 10:12:21;;;;;;;26.80;19.20;;;;;;;26.45;100.00;100820.22;4882643;29;20135;-65
2021/08/28 10:15:08;;;;;;;25.38;18.20;;;;;;;26.37;100.00;100814.63;4882023;29;20029;-65
2021/08/28 10:17:56;;;;;;;26.63;18.55;;;;;;;26.45;100.00;100809.47;4882476;29;20073;-66
2021/08/28 10:20:43;;;;;;;31.33;18.88;;;;;;;26.68;100.00;100813.84;4882162;29;20037;-66
2021/08/28 10:23:34;;;;;;;27.05;18.95;;;;;;;27.31;100.00;100819.25;4869240;29;20041;-66
2021/08/28 10:26:21;;;;;;;19.83;17.27;;;;;;;28.01;100.00;100806.81;4881953;29;20052;-66
2021/08/28 10:29:07;;;;;;;25.00;18.95;;;;;;;28.02;100.00;100807.66;4882637;29;20029;-66
2021/08/28 10:31:53;;;;;;;22.77;18.35;;;;;;;27.98;100.00;100809.78;4869127;29;20033;-66
2021/08/28 10:34:40;;;;;;;26.38;19.23;;;;;;;27.90;100.00;100812.28;4882096;29;20100;-67
2021/08/28 10:37:25;;;;;;;29.80;19.27;;;;;;;27.74;100.00;100814.56;4868058;29;20112;-66
2021/08/28 10:40:20;;;;;;;28.73;19.73;;;;;;;27.76;100.00;100814.44;4882399;29;20033;-66
2021/08/28 10:43:09;;;;;;;28.05;19.42;;;;;;;28.29;100.00;100806.03;4868777;29;20072;-66
2021/08/28 10:45:55;;;;;;;24.98;19.40;;;;;;;28.66;100.00;100804.47;4881671;29;20057;-66
2021/08/28 10:48:54;;;;;;;24.67;18.70;;;;;;;28.69;100.00;100806.03;4881897;29;20032;-67
2021/08/28 10:51:43;;;;;;;24.20;19.70;;;;;;;28.88;100.00;100800.66;4882279;29;20473;-67
2021/08/28 10:54:30;;;;;;;27.63;18.55;;;;;;;27.82;100.00;100795.06;4881969;29;20092;-66
2021/08/28 10:57:26;;;;;;;23.17;18.55;;;;;;;28.23;100.00;100798.50;4868449;29;20029;-66
2021/08/28 11:00:17;;;;;;;25.05;18.48;;;;;;;28.22;100.00;100788.75;4881806;29;20033;-67
2021/08/28 11:03:03;;;;;;;20.63;16.20;;;;;;;28.64;100.00;100798.34;4881570;29;20029;-66
2021/08/28 11:06:15;;;;;;;23.35;16.50;;;;;;;28.29;100.00;100792.56;4868541;29;20029;-66
2021/08/28 11:09:00;;;;;;;21.88;16.10;;;;;;;28.84;100.00;100793.81;4881347;29;20037;-66
2021/08/28 11:11:47;;;;;;;17.52;14.80;;;;;;;28.81;100.00;100783.34;4881795;29;20079;-67
2021/08/28 11:14:44;;;;;;;17.98;14.32;;;;;;;29.22;100.00;100791.19;4881349;29;20347;-66
2021/08/28 11:17:39;;;;;;;23.60;14.00;;;;;;;29.05;100.00;100787.34;4881822;29;20037;-66
2021/08/28 11:20:27;;;;;;;20.60;15.05;;;;;;;29.36;100.00;100780.78;4881299;29;20028;-66
2021/08/28 11:23:18;;;;;;;18.85;15.05;;;;;;;29.81;100.00;100772.91;4881310;29;20108;-66
2021/08/28 11:26:04;;;;;;;24.75;16.85;;;;;;;28.73;100.00;100759.75;4881243;29;20515;-67
2021/08/28 11:28:50;;;;;;;20.40;15.98;;;;;;;29.42;100.00;100749.66;4881457;29;20171;-66
2021/08/28 11:32:03;;;;;;;20.33;16.35;;;;;;;29.20;100.00;100752.66;4880725;29;20511;-65
2021/08/28 11:34:57;;;;;;;22.88;17.02;;;;;;;28.87;100.00;100745.88;4881277;29;20037;-65
2021/08/28 11:37:43;;;;;;;28.60;17.00;;;;;;;29.47;100.00;100728.47;4881016;29;20060;-66
2021/08/28 11:40:30;;;;;;;26.52;17.88;;;;;;;29.14;100.00;100732.53;4881387;29;20060;-67
2021/08/28 11:43:16;;;;;;;22.65;17.10;;;;;;;29.62;100.00;100727.03;4881334;29;20119;-66
2021/08/28 11:46:27;;;;;;;25.05;17.90;;;;;;;28.74;100.00;100712.94;4880697;29;20470;-66
2021/08/28 11:49:13;;;;;;;27.77;19.00;;;;;;;29.15;100.00;100707.25;4880988;29;20033;-66
2021/08/28 11:52:00;;;;;;;28.95;18.13;;;;;;;28.93;100.00;100706.69;4867554;29;20113;-66
2021/08/28 11:54:47;;;;;;;27.70;18.17;;;;;;;28.83;100.00;100703.97;4866778;29;20036;-66
2021/08/28 11:57:35;;;;;;;25.30;17.95;;;;;;;28.85;100.00;100704.66;4880570;29;20037;-66
2021/08/28 12:00:27;;;;;;;22.73;16.63;;;;;;;29.07;100.00;100708.94;4881769;29;20404;-66
2021/08/28 12:03:15;;;;;;;19.88;15.23;;;;;;;28.71;100.00;100705.13;4880425;29;20028;-66
2021/08/28 12:06:02;;;;;;;19.52;13.02;;;;;;;28.52;100.00;100704.28;4880669;29;20021;-66
2021/08/28 12:08:48;;;;;;;13.65;11.27;;;;;;;28.64;100.00;100701.28;4880489;29;20028;-66
2021/08/28 12:11:44;;;;;;;16.42;11.63;;;;;;;28.69;100.00;100693.59;4880691;29;20045;-66
2021/08/28 12:14:31;;;;;;;19.55;10.63;;;;;;;29.39;100.00;100691.41;4880156;29;20481;-67
2021/08/28 12:17:27;;;;;;;14.35;10.20;;;;;;;29.11;100.00;100684.25;4880282;29;20021;-66
2021/08/28 12:20:13;;;;;;;11.88;9.88;;;;;;;29.27;100.00;100678.22;4880222;29;20072;-67
2021/08/28 12:23:01;;;;;;;12.15;9.43;;;;;;;29.33;100.00;100680.34;4882348;29;20450;-67
2021/08/28 12:25:47;;;;;;;12.65;8.88;;;;;;;29.50;100.00;100675.00;4880949;29;20392;-67
2021/08/28 12:28:33;;;;;;;10.88;8.88;;;;;;;29.55;100.00;100672.72;4880561;29;20033;-67
2021/08/28 12:31:19;;;;;;;11.48;8.75;;;;;;;29.38;100.00;100669.94;4880641;29;20101;-67
2021/08/28 12:34:21;;;;;;;10.40;7.93;;;;;;;29.55;100.00;100666.47;4880372;29;20056;-67